createdAt,value
2023-03-29T00:01:52.651Z,9.70
2023-03-29T00:06:55.946Z,7.50
2023-03-29T00:12:01.592Z,6.90
2023-03-29T00:17:04.746Z,7.90
2023-03-29T00:22:08.228Z,8.20
2023-03-29T00:27:11.339Z,8.00
2023-03-29T00:32:15.770Z,8.20
2023-03-29T00:37:19.694Z,6.40
2023-03-29T00:42:24.538Z,10.80
2023-03-29T00:47:30.525Z,6.70
2023-03-29T00:52:35.983Z,7.10
2023-03-29T00:57:43.584Z,7.50
2023-03-29T01:02:54.622Z,6.60
2023-03-29T01:08:09.256Z,4.40
2023-03-29T01:13:22.562Z,3.70
2023-03-29T01:18:25.715Z,4.70
2023-03-29T01:24:07.384Z,4.40
2023-03-29T01:29:29.033Z,4.30
2023-03-29T01:34:43.126Z,5.40
2023-03-29T01:39:46.860Z,4.10
2023-03-29T01:45:11.780Z,3.60
2023-03-29T01:50:41.127Z,3.40
2023-03-29T01:55:51.993Z,2.20
2023-03-29T02:00:55.784Z,2.70
2023-03-29T02:06:01.645Z,3.40
2023-03-29T02:11:05.714Z,3.20
2023-03-29T02:16:15.066Z,4.50
2023-03-29T02:21:32.827Z,5.20
2023-03-29T02:26:36.432Z,5.20
2023-03-29T02:32:12.601Z,4.10
2023-03-29T02:37:20.114Z,2.80
2023-03-29T02:42:25.687Z,3.00
2023-03-29T02:47:41.562Z,4.10
2023-03-29T02:52:55.161Z,3.40
2023-03-29T02:57:58.656Z,2.80
2023-03-29T03:03:03.515Z,2.90
2023-03-29T03:08:07.627Z,3.30
2023-03-29T03:13:10.631Z,3.40
2023-03-29T03:18:14.361Z,3.40
2023-03-29T03:23:18.067Z,3.20
2023-03-29T03:28:24.410Z,3.60
2023-03-29T03:33:28.386Z,4.30
2023-03-29T03:38:33.556Z,4.80
2023-03-29T03:43:36.852Z,6.30
2023-03-29T03:48:39.945Z,4.00
2023-03-29T03:53:43.154Z,4.20
2023-03-29T03:58:46.578Z,2.70
2023-03-29T04:03:49.970Z,2.70
2023-03-29T04:08:53.819Z,2.80
2023-03-29T04:13:58.033Z,2.10
2023-03-29T04:19:01.588Z,1.70
2023-03-29T04:24:05.951Z,2.20
2023-03-29T04:29:09.345Z,2.70
2023-03-29T04:34:12.717Z,1.80
2023-03-29T04:39:18.294Z,2.90
2023-03-29T04:44:21.607Z,4.40
2023-03-29T04:49:26.073Z,4.10
2023-03-29T04:54:29.454Z,5.60
2023-03-29T04:59:32.659Z,6.20
2023-03-29T05:04:36.854Z,1.70
2023-03-29T05:09:41.948Z,2.60
2023-03-29T05:14:45.057Z,1.70
2023-03-29T05:19:48.599Z,3.30
2023-03-29T05:24:53.121Z,2.60
2023-03-29T05:29:56.339Z,3.80
2023-03-29T05:34:59.422Z,3.70
2023-03-29T05:40:08.687Z,1.90
2023-03-29T05:45:12.326Z,1.10
2023-03-29T05:50:15.595Z,2.60
2023-03-29T05:55:18.706Z,4.10
2023-03-29T06:00:24.428Z,2.10
2023-03-29T06:05:27.785Z,4.00
2023-03-29T06:10:31.296Z,4.20
2023-03-29T06:15:35.741Z,3.20
2023-03-29T06:20:38.948Z,2.50
2023-03-29T06:25:44.928Z,3.10
2023-03-29T06:30:49.456Z,3.10
2023-03-29T06:35:53.029Z,4.10
2023-03-29T06:41:06.088Z,2.80
2023-03-29T06:46:12.333Z,3.50
2023-03-29T06:51:15.710Z,3.10
2023-03-29T06:56:18.837Z,3.50
2023-03-29T07:01:22.065Z,4.00
2023-03-29T07:06:26.666Z,4.10
2023-03-29T07:11:31.824Z,3.00
2023-03-29T07:16:37.819Z,3.10
2023-03-29T07:21:41.824Z,3.10
2023-03-29T07:27:00.292Z,3.60
2023-03-29T07:32:07.520Z,2.80
2023-03-29T07:37:10.796Z,2.90
2023-03-29T07:42:14.010Z,3.20
2023-03-29T07:47:17.211Z,2.30
2023-03-29T07:52:20.236Z,3.00
2023-03-29T07:57:25.336Z,2.60
2023-03-29T08:02:29.360Z,2.80
2023-03-29T08:07:33.221Z,2.60
2023-03-29T08:12:37.829Z,2.50
2023-03-29T08:17:42.171Z,2.30
2023-03-29T08:22:45.517Z,2.40
2023-03-29T08:27:48.663Z,2.10
2023-03-29T08:32:55.160Z,2.40
2023-03-29T08:37:58.765Z,1.80
2023-03-29T08:43:26.823Z,1.90
2023-03-29T08:48:42.538Z,1.90
2023-03-29T08:54:17.577Z,1.50
2023-03-29T08:59:30.753Z,2.50
2023-03-29T09:04:36.772Z,2.00
2023-03-29T09:09:39.901Z,1.50
2023-03-29T09:15:00.362Z,1.70
2023-03-29T09:20:18.882Z,1.50
2023-03-29T09:30:43.347Z,1.20
2023-03-29T09:36:12.624Z,2.10
2023-03-29T09:41:41.493Z,1.30
2023-03-29T09:47:10.772Z,1.50
2023-03-29T09:52:17.431Z,1.40
2023-03-29T09:57:21.071Z,1.70
2023-03-29T10:02:24.225Z,1.90
2023-03-29T10:07:44.819Z,2.80
2023-03-29T10:12:59.373Z,2.10
2023-03-29T10:18:11.015Z,1.70
2023-03-29T10:23:18.949Z,2.10
2023-03-29T10:28:23.029Z,1.80
2023-03-29T10:33:32.774Z,1.60
2023-03-29T10:38:38.269Z,1.90
2023-03-29T10:43:49.639Z,1.20
2023-03-29T10:48:57.889Z,1.60
2023-03-29T10:54:03.065Z,2.00
2023-03-29T10:59:25.096Z,1.60
2023-03-29T11:04:47.956Z,1.70
2023-03-29T11:10:34.904Z,1.60
2023-03-29T11:16:20.024Z,1.70
2023-03-29T11:21:35.161Z,1.20
2023-03-29T11:27:03.116Z,2.10
2023-03-29T11:32:13.389Z,2.20
2023-03-29T11:37:35.198Z,1.20
2023-03-29T11:42:46.096Z,1.90
2023-03-29T11:47:53.597Z,1.70
2023-03-29T11:53:08.475Z,1.40
2023-03-29T11:58:40.450Z,1.40
2023-03-29T12:03:59.178Z,1.50
2023-03-29T12:09:13.197Z,2.00
2023-03-29T12:14:42.703Z,1.60
2023-03-29T12:20:13.554Z,1.80
2023-03-29T12:25:25.237Z,1.30
2023-03-29T12:30:52.024Z,1.20
2023-03-29T12:36:32.210Z,1.70
2023-03-29T12:41:38.567Z,1.70
2023-03-29T12:46:41.911Z,2.10
2023-03-29T12:51:45.635Z,1.30
2023-03-29T12:56:52.286Z,2.10
2023-03-29T13:02:20.426Z,1.20
2023-03-29T13:07:23.638Z,1.90
2023-03-29T13:12:42.181Z,1.40
2023-03-29T13:18:20.037Z,2.40
2023-03-29T13:23:52.389Z,1.80
2023-03-29T13:29:51.828Z,1.60
2023-03-29T13:35:07.275Z,2.70
2023-03-29T13:40:44.854Z,2.00
2023-03-29T13:45:57.253Z,2.50
2023-03-29T13:51:08.563Z,1.90
2023-03-29T13:56:22.192Z,2.60
2023-03-29T14:01:40.119Z,1.80
2023-03-29T14:06:53.005Z,1.90
2023-03-29T14:12:00.630Z,2.10
2023-03-29T14:17:06.175Z,1.90
2023-03-29T14:22:17.042Z,2.30
2023-03-29T14:27:22.303Z,2.10
2023-03-29T14:32:31.617Z,1.60
2023-03-29T14:37:34.880Z,2.60
2023-03-29T14:42:38.604Z,2.50
2023-03-29T14:47:44.807Z,2.00
2023-03-29T14:52:52.397Z,2.20
2023-03-29T14:57:56.484Z,2.40
2023-03-29T15:03:03.092Z,2.70
2023-03-29T15:08:13.475Z,2.30
2023-03-29T15:13:24.681Z,3.20
2023-03-29T15:18:35.199Z,3.10
2023-03-29T15:23:55.134Z,6.20
2023-03-29T15:29:08.213Z,6.90
2023-03-29T15:34:14.681Z,5.10
2023-03-29T15:39:20.272Z,2.70
2023-03-29T15:44:29.495Z,3.30
2023-03-29T15:49:32.523Z,7.00
2023-03-29T15:54:37.448Z,10.40
2023-03-29T15:59:41.970Z,14.10
2023-03-29T16:04:45.113Z,13.40
2023-03-29T16:09:48.313Z,10.60
2023-03-29T16:14:51.612Z,11.40
2023-03-29T16:19:54.728Z,9.00
2023-03-29T16:24:57.955Z,10.00
2023-03-29T16:30:01.459Z,10.80
2023-03-29T16:35:27.169Z,8.90
2023-03-29T16:40:30.596Z,11.70
2023-03-29T16:45:33.910Z,23.30
2023-03-29T16:50:37.580Z,18.80
2023-03-29T16:55:41.148Z,17.70
2023-03-29T17:00:47.980Z,24.90
2023-03-29T17:05:54.014Z,29.70
2023-03-29T17:10:57.642Z,33.90
2023-03-29T17:16:01.540Z,21.70
2023-03-29T17:21:07.289Z,19.10
2023-03-29T17:26:12.174Z,17.10
2023-03-29T17:31:16.378Z,18.80
2023-03-29T17:36:24.243Z,23.60
2023-03-29T17:41:30.402Z,34.40
2023-03-29T17:46:34.495Z,23.90
2023-03-29T17:51:37.732Z,22.70
2023-03-29T17:56:41.174Z,17.60
2023-03-29T18:01:44.310Z,19.40
2023-03-29T18:06:49.413Z,23.50
2023-03-29T18:11:52.637Z,18.60
2023-03-29T18:16:57.241Z,18.90
2023-03-29T18:22:01.085Z,15.20
2023-03-29T18:27:04.500Z,14.00
2023-03-29T18:32:08.061Z,14.20
2023-03-29T18:37:15.162Z,15.90
2023-03-29T18:42:20.598Z,19.10
2023-03-29T18:47:23.629Z,18.20
2023-03-29T18:52:27.926Z,18.20
2023-03-29T18:57:31.058Z,20.00
2023-03-29T19:02:34.319Z,16.00
2023-03-29T19:07:38.069Z,13.20
2023-03-29T19:12:41.598Z,8.80
2023-03-29T19:17:45.246Z,9.30
2023-03-29T19:22:48.433Z,9.70
2023-03-29T19:27:51.515Z,7.90
2023-03-29T19:32:54.670Z,11.10
2023-03-29T19:37:58.145Z,14.60
2023-03-29T19:43:01.349Z,21.10
2023-03-29T19:48:04.722Z,29.60
2023-03-29T19:53:09.050Z,21.80
2023-03-29T19:58:12.514Z,12.20
2023-03-29T20:03:16.017Z,11.40
2023-03-29T20:08:19.248Z,15.10
2023-03-29T20:13:35.344Z,26.40
2023-03-29T20:18:40.902Z,26.20
2023-03-29T20:23:44.452Z,20.20
2023-03-29T20:28:47.767Z,13.00
2023-03-29T20:33:50.831Z,11.20
2023-03-29T20:38:56.501Z,10.90
2023-03-29T20:44:00.484Z,10.80
2023-03-29T20:49:09.039Z,7.70
2023-03-29T20:54:14.353Z,8.40
2023-03-29T20:59:18.038Z,10.00
2023-03-29T21:04:21.143Z,15.60
2023-03-29T21:09:25.709Z,19.20
2023-03-29T21:14:30.438Z,14.30
2023-03-29T21:19:33.426Z,13.90
2023-03-29T21:24:36.779Z,17.00
2023-03-29T21:29:39.960Z,15.60
2023-03-29T21:34:43.060Z,14.60
2023-03-29T21:39:46.159Z,17.70
2023-03-29T21:44:49.165Z,11.50
2023-03-29T21:49:52.268Z,11.10
2023-03-29T21:54:55.272Z,7.80
2023-03-29T21:59:58.426Z,6.30
2023-03-29T22:05:01.389Z,12.40
2023-03-29T22:10:12.020Z,15.60
2023-03-29T22:15:16.002Z,9.70
2023-03-29T22:20:20.248Z,6.90
2023-03-29T22:25:24.512Z,10.60
2023-03-29T22:30:27.682Z,8.90
2023-03-29T22:35:30.737Z,7.80
2023-03-29T22:40:33.877Z,7.20
2023-03-29T22:45:37.014Z,12.50
2023-03-29T22:50:43.173Z,13.30
2023-03-29T22:55:46.494Z,10.50
2023-03-29T23:00:51.807Z,7.00
2023-03-29T23:05:58.336Z,6.40
2023-03-29T23:11:03.169Z,5.70
2023-03-29T23:16:07.577Z,5.70
2023-03-29T23:21:10.927Z,6.00
2023-03-29T23:26:14.360Z,3.90
2023-03-29T23:31:20.533Z,5.30
2023-03-29T23:36:25.780Z,5.90
2023-03-29T23:41:30.928Z,5.30
2023-03-29T23:46:34.582Z,6.20
2023-03-29T23:51:39.329Z,5.60
2023-03-29T23:56:42.438Z,6.00
